createdAt,value
2022-08-17T00:00:43.125Z,4.18
2022-08-17T00:05:41.591Z,3.97
2022-08-17T00:10:46.025Z,4.30
2022-08-17T00:15:47.061Z,4.25
2022-08-17T00:20:47.686Z,3.67
2022-08-17T00:25:50.089Z,4.10
2022-08-17T00:30:53.504Z,3.97
2022-08-17T00:35:55.178Z,4.07
2022-08-17T00:40:59.681Z,4.22
2022-08-17T00:46:05.477Z,3.50
2022-08-17T00:51:13.184Z,4.28
2022-08-17T00:56:19.473Z,4.25
2022-08-17T01:01:21.364Z,4.05
2022-08-17T01:06:24.465Z,4.57
2022-08-17T01:11:26.805Z,4.30
2022-08-17T01:16:29.901Z,4.95
2022-08-17T01:21:37.217Z,3.80
2022-08-17T01:26:40.274Z,4.40
2022-08-17T01:31:46.467Z,4.63
2022-08-17T01:36:50.388Z,4.13
2022-08-17T01:41:57.220Z,4.97
2022-08-17T01:46:57.911Z,4.35
2022-08-17T01:52:07.217Z,4.28
2022-08-17T01:57:09.742Z,5.18
2022-08-17T02:02:10.362Z,4.78
2022-08-17T02:07:10.970Z,4.82
2022-08-17T02:12:37.733Z,5.40
2022-08-17T02:17:33.745Z,4.82
2022-08-17T02:22:35.755Z,4.80
2022-08-17T02:27:39.348Z,5.15
2022-08-17T02:32:40.397Z,4.85
2022-08-17T02:37:42.975Z,4.72
2022-08-17T02:42:50.229Z,4.75
2022-08-17T02:47:51.704Z,4.38
2022-08-17T02:53:02.084Z,4.85
2022-08-17T02:58:04.871Z,5.22
2022-08-17T03:03:07.071Z,4.88
2022-08-17T03:08:13.035Z,5.50
2022-08-17T03:13:15.919Z,5.07
2022-08-17T03:18:24.448Z,5.40
2022-08-17T03:23:29.425Z,5.32
2022-08-17T03:28:31.963Z,5.38
2022-08-17T03:33:32.941Z,5.45
2022-08-17T03:38:39.004Z,5.22
2022-08-17T03:43:41.437Z,5.32
2022-08-17T03:48:59.547Z,5.10
2022-08-17T03:54:18.535Z,5.85
2022-08-17T03:59:22.975Z,5.82
2022-08-17T04:04:27.744Z,5.15
2022-08-17T04:09:28.889Z,5.97
2022-08-17T04:14:36.082Z,5.35
2022-08-17T04:19:53.329Z,5.70
2022-08-17T04:24:53.957Z,5.82
2022-08-17T04:30:01.156Z,5.20
2022-08-17T04:35:01.808Z,5.78
2022-08-17T04:40:16.431Z,5.40
2022-08-17T04:45:18.389Z,5.85
2022-08-17T04:50:19.032Z,5.68
2022-08-17T04:55:19.926Z,5.47
2022-08-17T05:00:22.267Z,5.82
2022-08-17T05:05:26.383Z,5.38
2022-08-17T05:10:29.166Z,6.38
2022-08-17T05:15:32.981Z,5.85
2022-08-17T05:20:35.161Z,5.40
2022-08-17T05:25:39.482Z,5.30
2022-08-17T05:30:43.218Z,5.22
2022-08-17T05:35:46.977Z,4.75
2022-08-17T05:40:48.431Z,5.60
2022-08-17T05:46:01.244Z,5.45
2022-08-17T05:51:14.226Z,5.15
2022-08-17T05:56:29.867Z,4.45
2022-08-17T06:01:42.349Z,6.22
2022-08-17T06:06:51.637Z,4.68
2022-08-17T06:11:58.736Z,4.57
2022-08-17T06:17:05.450Z,4.97
2022-08-17T06:22:09.051Z,4.28
2022-08-17T06:27:14.731Z,4.47
2022-08-17T06:32:17.256Z,5.10
2022-08-17T06:37:59.698Z,4.55
2022-08-17T06:43:14.384Z,4.82
2022-08-17T06:48:25.400Z,4.68
2022-08-17T06:53:29.720Z,4.82
2022-08-17T06:58:33.253Z,4.30
2022-08-17T07:03:40.745Z,4.20
2022-08-17T07:08:55.981Z,4.05
2022-08-17T07:14:06.572Z,4.50
2022-08-17T07:19:10.850Z,3.92
2022-08-17T07:24:30.545Z,3.95
2022-08-17T07:29:33.124Z,3.95
2022-08-17T07:35:08.491Z,4.68
2022-08-17T07:40:18.980Z,4.63
2022-08-17T07:45:33.695Z,4.38
2022-08-17T07:50:35.696Z,3.92
2022-08-17T07:55:41.468Z,3.25
2022-08-17T08:00:43.155Z,3.20
2022-08-17T08:05:53.851Z,3.30
2022-08-17T08:11:10.434Z,3.33
2022-08-17T08:16:27.563Z,3.78
2022-08-17T08:21:43.804Z,3.53
2022-08-17T08:26:51.248Z,3.45
2022-08-17T08:32:03.604Z,3.88
2022-08-17T08:37:25.036Z,3.35
2022-08-17T08:42:43.224Z,3.55
2022-08-17T08:48:05.177Z,3.53
2022-08-17T08:53:23.499Z,3.28
2022-08-17T08:58:41.963Z,3.45
2022-08-17T09:04:11.797Z,3.67
2022-08-17T09:09:27.873Z,3.30
2022-08-17T09:14:45.382Z,3.28
2022-08-17T09:19:52.317Z,3.28
2022-08-17T09:24:58.433Z,2.83
2022-08-17T09:30:03.343Z,3.25
2022-08-17T09:35:11.038Z,2.78
2022-08-17T09:40:19.517Z,2.70
2022-08-17T09:45:32.937Z,2.65
2022-08-17T09:51:04.285Z,2.70
2022-08-17T09:56:13.676Z,2.45
2022-08-17T10:01:25.216Z,2.45
2022-08-17T10:06:30.824Z,2.22
2022-08-17T10:11:54.611Z,2.83
2022-08-17T10:17:06.014Z,2.25
2022-08-17T10:22:35.195Z,2.22
2022-08-17T10:27:48.659Z,2.20
2022-08-17T10:32:55.002Z,2.53
2022-08-17T10:38:40.840Z,1.83
2022-08-17T10:44:02.182Z,2.05
2022-08-17T10:49:25.309Z,2.28
2022-08-17T10:54:57.946Z,2.30
2022-08-17T11:00:01.838Z,2.40
2022-08-17T11:05:19.080Z,2.40
2022-08-17T11:10:51.844Z,1.88
2022-08-17T11:16:08.950Z,1.73
2022-08-17T11:21:26.470Z,2.20
2022-08-17T11:26:30.396Z,2.22
2022-08-17T11:31:39.322Z,2.15
2022-08-17T11:36:57.701Z,1.98
2022-08-17T11:42:05.865Z,2.20
2022-08-17T11:47:33.581Z,2.17
2022-08-17T11:52:40.990Z,2.20
2022-08-17T11:58:03.562Z,2.20
2022-08-17T12:03:24.874Z,2.42
2022-08-17T12:08:27.583Z,1.70
2022-08-17T12:13:34.609Z,2.40
2022-08-17T12:18:50.571Z,1.92
2022-08-17T12:23:58.215Z,1.88
2022-08-17T12:29:01.832Z,2.38
2022-08-17T12:34:05.560Z,2.30
2022-08-17T12:39:13.867Z,1.85
2022-08-17T12:44:18.183Z,2.00
2022-08-17T12:49:29.909Z,2.08
2022-08-17T12:54:39.569Z,1.50
2022-08-17T12:59:44.090Z,2.35
2022-08-17T13:04:47.465Z,2.08
2022-08-17T13:09:52.341Z,1.88
2022-08-17T13:14:53.021Z,2.25
2022-08-17T13:19:55.077Z,2.03
2022-08-17T13:24:58.212Z,2.03
2022-08-17T13:30:02.254Z,2.05
2022-08-17T13:35:44.272Z,2.05
2022-08-17T13:40:54.120Z,1.95
2022-08-17T13:46:07.800Z,2.50
2022-08-17T13:51:23.050Z,1.80
2022-08-17T13:56:49.995Z,1.83
2022-08-17T14:01:53.757Z,1.63
2022-08-17T14:06:58.872Z,2.10
2022-08-17T14:12:02.533Z,2.00
2022-08-17T14:17:03.588Z,2.25
2022-08-17T14:22:05.106Z,2.15
2022-08-17T14:27:09.037Z,2.10
2022-08-17T14:32:19.482Z,2.17
2022-08-17T14:37:21.785Z,2.05
2022-08-17T14:42:26.226Z,2.00
2022-08-17T14:47:27.514Z,2.42
2022-08-17T14:52:28.151Z,2.30
2022-08-17T14:57:33.691Z,2.50
2022-08-17T15:02:46.424Z,1.95
2022-08-17T15:07:47.060Z,1.83
2022-08-17T15:12:49.663Z,1.88
2022-08-17T15:17:51.190Z,2.05
2022-08-17T15:22:55.024Z,2.10
2022-08-17T15:27:57.522Z,2.00
2022-08-17T15:32:59.598Z,2.00
2022-08-17T15:38:10.541Z,2.13
2022-08-17T15:43:15.915Z,2.20
2022-08-17T15:48:18.617Z,1.98
2022-08-17T15:53:19.220Z,2.33
2022-08-17T15:58:21.144Z,1.85
2022-08-17T16:04:03.804Z,2.38
2022-08-17T16:08:56.053Z,2.38
2022-08-17T16:13:57.966Z,2.30
2022-08-17T16:18:58.890Z,2.17
2022-08-17T16:24:02.146Z,2.30
2022-08-17T16:29:07.653Z,2.00
2022-08-17T16:34:17.266Z,2.38
2022-08-17T16:39:19.222Z,1.98
2022-08-17T16:44:22.439Z,1.83
2022-08-17T16:49:35.841Z,1.83
2022-08-17T16:54:38.577Z,2.10
2022-08-17T16:59:44.936Z,1.80
2022-08-17T17:04:53.164Z,1.92
2022-08-17T17:09:55.416Z,2.20
2022-08-17T17:14:59.269Z,2.40
2022-08-17T17:20:07.716Z,2.40
2022-08-17T17:25:13.680Z,2.17
2022-08-17T17:30:20.649Z,2.60
2022-08-17T17:35:25.226Z,3.78
2022-08-17T17:40:32.866Z,3.17
2022-08-17T17:45:42.197Z,2.85
2022-08-17T17:50:48.958Z,3.35
2022-08-17T17:55:59.797Z,3.10
2022-08-17T18:01:23.398Z,3.53
2022-08-17T18:06:36.262Z,3.30
2022-08-17T18:12:03.338Z,3.75
2022-08-17T18:17:07.533Z,3.40
2022-08-17T18:22:14.442Z,3.08
2022-08-17T18:27:31.766Z,4.00
2022-08-17T18:32:36.969Z,3.20
2022-08-17T18:37:42.674Z,3.58
2022-08-17T18:42:45.772Z,3.10
2022-08-17T18:47:54.279Z,3.38
2022-08-17T18:52:56.108Z,3.40
2022-08-17T18:57:58.773Z,3.03
2022-08-17T19:03:03.077Z,3.25
2022-08-17T19:08:24.811Z,3.40
2022-08-17T19:13:29.405Z,3.47
2022-08-17T19:18:38.505Z,3.75
2022-08-17T19:23:53.822Z,3.70
2022-08-17T19:29:00.873Z,4.18
2022-08-17T19:34:03.980Z,4.38
2022-08-17T19:39:12.293Z,4.13
2022-08-17T19:44:26.962Z,4.70
2022-08-17T19:49:41.192Z,4.45
2022-08-17T19:54:47.951Z,4.22
2022-08-17T19:59:54.624Z,4.80
2022-08-17T20:05:01.002Z,5.25
2022-08-17T20:10:06.520Z,4.95
2022-08-17T20:15:11.140Z,4.50
2022-08-17T20:20:25.954Z,4.60
2022-08-17T20:25:36.003Z,4.97
2022-08-17T20:30:39.867Z,4.20
2022-08-17T20:36:02.856Z,4.70
2022-08-17T20:41:14.804Z,4.82
2022-08-17T20:46:35.060Z,5.43
2022-08-17T20:51:43.073Z,5.10
2022-08-17T20:57:02.415Z,4.85
2022-08-17T21:02:18.621Z,6.10
2022-08-17T21:07:30.047Z,5.22
2022-08-17T21:12:43.059Z,4.82
2022-08-17T21:17:51.385Z,4.60
2022-08-17T21:23:06.143Z,4.00
2022-08-17T21:28:14.751Z,4.65
2022-08-17T21:33:23.773Z,4.43
2022-08-17T21:38:37.849Z,4.57
2022-08-17T21:43:48.448Z,4.68
2022-08-17T21:48:49.307Z,4.47
2022-08-17T21:54:00.331Z,4.10
2022-08-17T21:59:04.278Z,3.50
2022-08-17T22:04:16.139Z,4.03
2022-08-17T22:09:22.001Z,4.30
2022-08-17T22:14:26.429Z,4.22
2022-08-17T22:19:51.410Z,4.10
2022-08-17T22:24:57.583Z,3.63
2022-08-17T22:29:59.813Z,3.85
2022-08-17T22:35:28.413Z,4.13
2022-08-17T22:40:33.014Z,3.35
2022-08-17T22:45:43.193Z,4.20
2022-08-17T22:50:43.844Z,3.75
2022-08-17T22:56:12.550Z,4.18
2022-08-17T23:01:32.449Z,3.78
2022-08-17T23:06:34.701Z,4.30
2022-08-17T23:11:49.547Z,3.88
2022-08-17T23:16:51.102Z,4.03
2022-08-17T23:21:55.202Z,4.47
2022-08-17T23:26:58.964Z,4.13
2022-08-17T23:32:04.657Z,3.83
2022-08-17T23:37:05.286Z,4.65
2022-08-17T23:42:10.185Z,4.35
2022-08-17T23:47:10.916Z,4.40
2022-08-17T23:52:16.500Z,4.25
2022-08-17T23:57:33.662Z,3.80
